Time;durP1;ratioP1;P1;durP2;ratioP2;P2;SDS_P1;SDS_P2;PMS_P1;PMS_P2;Temp;Humidity;BMP_temperature;BMP_pressure;BME280_temperature;BME280_humidity;BME280_pressure;Samples;Min_cycle;Max_cycle;Signal;HPM_P1;HPM_P2
2024/01/27 00:01:30;;;;;;;0.65;0.57;;;;;;;;;;5862720;28;20064;-77
2024/01/27 00:04:20;;;;;;;0.40;0.40;;;;;;;;;;5865169;28;21010;-77
2024/01/27 00:07:11;;;;;;;0.57;0.57;;;;;;;;;;5866616;28;20138;-77
2024/01/27 00:10:03;;;;;;;1.75;0.75;;;;;;;;;;5865190;28;20427;-77
2024/01/27 00:12:54;;;;;;;0.60;0.60;;;;;;;;;;5866746;28;20056;-77
2024/01/27 00:15:44;;;;;;;1.45;1.13;;;;;;;;;;5864791;28;20124;-77
2024/01/27 00:18:37;;;;;;;2.33;2.00;;;;;;;;;;5848523;28;20384;-77
2024/01/27 00:21:28;;;;;;;8.85;1.92;;;;;;;;;;5864782;28;20204;-77
2024/01/27 00:24:19;;;;;;;5.68;2.05;;;;;;;;;;5865945;28;20527;-77
2024/01/27 00:27:10;;;;;;;4.15;1.40;;;;;;;;;;5880882;28;20076;-77
2024/01/27 00:30:01;;;;;;;1.67;1.58;;;;;;;;;;5864678;28;20046;-77
2024/01/27 00:32:52;;;;;;;0.82;0.77;;;;;;;;;;5848487;28;20049;-76
2024/01/27 00:35:43;;;;;;;1.48;1.35;;;;;;;;;;5865708;28;20526;-77
2024/01/27 00:38:34;;;;;;;2.15;1.73;;;;;;;;;;5865540;28;20042;-76
2024/01/27 00:41:25;;;;;;;1.75;0.85;;;;;;;;;;5865571;28;20041;-77
2024/01/27 00:44:16;;;;;;;2.50;1.45;;;;;;;;;;5864242;28;20045;-77
2024/01/27 00:47:07;;;;;;;2.05;1.48;;;;;;;;;;5847762;28;20048;-77
2024/01/27 00:49:58;;;;;;;3.75;1.88;;;;;;;;;;5864637;28;20049;-77
2024/01/27 00:52:48;;;;;;;4.75;1.00;;;;;;;;;;5865167;28;20396;-77
2024/01/27 00:55:39;;;;;;;5.60;2.00;;;;;;;;;;5847392;28;20048;-77
2024/01/27 00:58:31;;;;;;;1.10;0.93;;;;;;;;;;5865021;28;20041;-77
2024/01/27 01:01:21;;;;;;;1.65;0.88;;;;;;;;;;5840393;28;20042;-77
2024/01/27 01:04:13;;;;;;;0.43;0.43;;;;;;;;;;5825713;28;20119;-77
2024/01/27 01:07:03;;;;;;;4.13;2.58;;;;;;;;;;5863777;28;20128;-77
2024/01/27 01:09:54;;;;;;;1.52;1.13;;;;;;;;;;5880876;28;20052;-77
2024/01/27 01:12:45;;;;;;;2.10;1.48;;;;;;;;;;5863210;28;20055;-77
2024/01/27 01:15:36;;;;;;;0.52;0.52;;;;;;;;;;5865078;28;20462;-77
2024/01/27 01:18:27;;;;;;;1.42;1.15;;;;;;;;;;5863479;28;20041;-77
2024/01/27 01:21:18;;;;;;;1.25;0.95;;;;;;;;;;5828409;28;20065;-77
2024/01/27 01:24:09;;;;;;;0.98;0.63;;;;;;;;;;5840174;28;20108;-77
2024/01/27 01:27:00;;;;;;;0.55;0.55;;;;;;;;;;5824733;28;20069;-78
2024/01/27 01:29:51;;;;;;;0.95;0.82;;;;;;;;;;5855542;28;20064;-77
2024/01/27 01:32:44;;;;;;;0.88;0.88;;;;;;;;;;5879137;28;20046;-77
2024/01/27 01:35:35;;;;;;;0.52;0.52;;;;;;;;;;5879440;28;20411;-77
2024/01/27 01:38:26;;;;;;;1.45;1.02;;;;;;;;;;5863089;28;20605;-77
2024/01/27 01:41:16;;;;;;;0.82;0.82;;;;;;;;;;5864163;28;20407;-76
2024/01/27 01:44:07;;;;;;;3.85;1.60;;;;;;;;;;5864113;28;20045;-77
2024/01/27 01:46:58;;;;;;;1.30;1.08;;;;;;;;;;5847163;28;20048;-76
2024/01/27 01:49:50;;;;;;;0.32;0.32;;;;;;;;;;5862616;28;20049;-77
2024/01/27 01:52:41;;;;;;;1.88;0.45;;;;;;;;;;5879042;28;20128;-77
2024/01/27 01:55:32;;;;;;;1.05;0.95;;;;;;;;;;5862649;28;20045;-77
2024/01/27 01:58:22;;;;;;;1.20;1.13;;;;;;;;;;5862628;28;20068;-77
2024/01/27 02:01:13;;;;;;;1.60;1.27;;;;;;;;;;5863348;28;20117;-77
2024/01/27 02:04:04;;;;;;;1.13;0.85;;;;;;;;;;5862582;28;20083;-77
2024/01/27 02:06:55;;;;;;;0.20;0.20;;;;;;;;;;5862745;28;20056;-77
2024/01/27 02:09:46;;;;;;;1.17;1.08;;;;;;;;;;5863446;28;20041;-77
2024/01/27 02:12:37;;;;;;;1.13;0.57;;;;;;;;;;5861964;28;20045;-77
2024/01/27 02:15:28;;;;;;;0.43;0.43;;;;;;;;;;5862341;28;20045;-77
2024/01/27 02:18:19;;;;;;;0.75;0.50;;;;;;;;;;5861996;28;20132;-77
2024/01/27 02:21:10;;;;;;;3.90;1.08;;;;;;;;;;5862131;28;20037;-76
2024/01/27 02:24:10;;;;;;;2.13;1.08;;;;;;;;;;5861307;28;20159;-77
2024/01/27 02:27:01;;;;;;;1.38;1.27;;;;;;;;;;5861868;28;20132;-77
2024/01/27 02:29:51;;;;;;;0.50;0.50;;;;;;;;;;5878569;28;20266;-77
2024/01/27 02:32:42;;;;;;;1.27;1.17;;;;;;;;;;5861656;28;20400;-77
2024/01/27 02:35:33;;;;;;;1.90;1.48;;;;;;;;;;5861894;28;20045;-77
2024/01/27 02:38:24;;;;;;;0.50;0.50;;;;;;;;;;5862966;28;20045;-77
2024/01/27 02:41:15;;;;;;;0.20;0.20;;;;;;;;;;5861253;28;20041;-76
2024/01/27 02:44:05;;;;;;;0.50;0.50;;;;;;;;;;5861421;28;20038;-77
2024/01/27 02:46:56;;;;;;;4.57;1.27;;;;;;;;;;5830039;28;20069;-77
2024/01/27 02:49:47;;;;;;;1.95;0.95;;;;;;;;;;5838459;28;20057;-77
2024/01/27 02:52:38;;;;;;;1.65;1.25;;;;;;;;;;5839515;28;20041;-77
2024/01/27 02:55:29;;;;;;;1.27;0.63;;;;;;;;;;5854868;28;20053;-77
2024/01/27 02:58:19;;;;;;;2.10;1.27;;;;;;;;;;5838050;28;20427;-77
2024/01/27 03:01:10;;;;;;;1.25;0.43;;;;;;;;;;5838036;28;20042;-77
2024/01/27 03:04:01;;;;;;;0.20;0.20;;;;;;;;;;5838510;28;20088;-77
2024/01/27 03:06:52;;;;;;;0.82;0.82;;;;;;;;;;5839150;28;20424;-77
2024/01/27 03:09:42;;;;;;;2.25;0.90;;;;;;;;;;5854607;28;20121;-77
2024/01/27 03:12:33;;;;;;;1.38;1.13;;;;;;;;;;5821731;28;20050;-77
2024/01/27 03:15:24;;;;;;;2.00;1.20;;;;;;;;;;5839503;28;20046;-77
2024/01/27 03:18:15;;;;;;;0.22;0.22;;;;;;;;;;5837990;28;20077;-77
2024/01/27 03:21:07;;;;;;;1.83;1.45;;;;;;;;;;5837987;28;20606;-77
2024/01/27 03:23:58;;;;;;;0.95;0.88;;;;;;;;;;5838698;28;20128;-77
2024/01/27 03:26:49;;;;;;;0.50;0.43;;;;;;;;;;5839109;28;20042;-77
2024/01/27 03:29:39;;;;;;;5.43;0.93;;;;;;;;;;5821636;28;20054;-77
2024/01/27 03:32:33;;;;;;;1.50;1.20;;;;;;;;;;5839151;28;20411;-77
2024/01/27 03:35:24;;;;;;;0.60;0.60;;;;;;;;;;5840110;28;20072;-76
2024/01/27 03:38:15;;;;;;;7.78;1.00;;;;;;;;;;5842544;28;20056;-77
2024/01/27 03:41:06;;;;;;;0.82;0.82;;;;;;;;;;5842350;28;20056;-77
2024/01/27 03:43:57;;;;;;;2.63;1.67;;;;;;;;;;5859266;28;20069;-77
2024/01/27 03:46:48;;;;;;;0.45;0.45;;;;;;;;;;5842283;28;20045;-77
2024/01/27 03:49:39;;;;;;;0.60;0.60;;;;;;;;;;5843806;28;20100;-77
2024/01/27 03:52:30;;;;;;;1.33;1.23;;;;;;;;;;5826082;28;20046;-78
2024/01/27 03:55:21;;;;;;;0.30;0.30;;;;;;;;;;5842272;28;20062;-77
2024/01/27 03:58:11;;;;;;;0.47;0.47;;;;;;;;;;5858424;28;20042;-77
2024/01/27 04:01:02;;;;;;;2.10;0.82;;;;;;;;;;5843445;28;20057;-77
2024/01/27 04:03:53;;;;;;;0.20;0.20;;;;;;;;;;5842682;28;20052;-77
2024/01/27 04:06:44;;;;;;;2.58;0.85;;;;;;;;;;5825845;28;20412;-76
2024/01/27 04:09:35;;;;;;;0.98;0.73;;;;;;;;;;5858328;28;20046;-77
2024/01/27 04:12:26;;;;;;;0.32;0.32;;;;;;;;;;5858061;28;20050;-77
2024/01/27 04:15:17;;;;;;;0.65;0.65;;;;;;;;;;5841726;28;20482;-77
2024/01/27 04:18:09;;;;;;;0.40;0.40;;;;;;;;;;5841610;28;20095;-77
2024/01/27 04:21:00;;;;;;;0.65;0.65;;;;;;;;;;5842050;28;20483;-77
2024/01/27 04:23:51;;;;;;;2.78;1.40;;;;;;;;;;5856892;28;20037;-77
2024/01/27 04:26:43;;;;;;;0.38;0.38;;;;;;;;;;5864268;28;20385;-77
2024/01/27 04:29:36;;;;;;;2.88;1.70;;;;;;;;;;5864607;28;20045;-77
2024/01/27 04:32:27;;;;;;;0.22;0.22;;;;;;;;;;5828197;28;20049;-76
2024/01/27 04:35:18;;;;;;;0.40;0.40;;;;;;;;;;5825119;28;20073;-77
2024/01/27 04:38:09;;;;;;;5.53;0.63;;;;;;;;;;5841359;28;20046;-77
2024/01/27 04:41:01;;;;;;;0.75;0.68;;;;;;;;;;5841661;28;20052;-77
2024/01/27 04:43:52;;;;;;;1.25;1.10;;;;;;;;;;5864402;28;20452;-77
2024/01/27 04:46:43;;;;;;;0.80;0.80;;;;;;;;;;5864755;28;20045;-77
2024/01/27 04:49:34;;;;;;;1.48;1.25;;;;;;;;;;5880319;28;20045;-77
2024/01/27 04:52:28;;;;;;;0.45;0.45;;;;;;;;;;5863889;28;20046;-77
2024/01/27 04:55:19;;;;;;;0.75;0.75;;;;;;;;;;5863796;28;20068;-77
2024/01/27 04:58:09;;;;;;;1.48;1.38;;;;;;;;;;5863640;28;20053;-77
2024/01/27 05:01:02;;;;;;;1.15;0.85;;;;;;;;;;5864188;28;20053;-77
2024/01/27 05:03:52;;;;;;;0.55;0.55;;;;;;;;;;5864159;28;20041;-77
2024/01/27 05:06:47;;;;;;;1.40;0.95;;;;;;;;;;5863559;28;20045;-77
2024/01/27 05:09:38;;;;;;;1.40;0.57;;;;;;;;;;5863718;28;20099;-77
2024/01/27 05:12:29;;;;;;;0.43;0.40;;;;;;;;;;5879834;28;20526;-77
2024/01/27 05:15:20;;;;;;;1.02;1.02;;;;;;;;;;5863336;28;20057;-77
2024/01/27 05:18:11;;;;;;;0.50;0.50;;;;;;;;;;5863375;28;20073;-77
2024/01/27 05:21:02;;;;;;;1.00;0.90;;;;;;;;;;5864872;28;20060;-77
2024/01/27 05:23:53;;;;;;;1.30;0.77;;;;;;;;;;5880346;28;20055;-77
2024/01/27 05:26:43;;;;;;;0.57;0.57;;;;;;;;;;5879741;28;20091;-77
2024/01/27 05:29:37;;;;;;;1.50;1.30;;;;;;;;;;5863294;28;20052;-77
2024/01/27 05:32:28;;;;;;;3.85;1.23;;;;;;;;;;5863132;28;20057;-77
2024/01/27 05:35:19;;;;;;;5.03;1.50;;;;;;;;;;5863092;28;20057;-77
2024/01/27 05:38:09;;;;;;;0.63;0.60;;;;;;;;;;5879290;28;20072;-77
2024/01/27 05:41:01;;;;;;;2.35;1.17;;;;;;;;;;5863561;28;20124;-77
2024/01/27 05:43:52;;;;;;;1.83;0.82;;;;;;;;;;5856625;28;20049;-77
2024/01/27 05:46:43;;;;;;;0.50;0.50;;;;;;;;;;5862584;28;20411;-77
2024/01/27 05:49:34;;;;;;;4.40;0.95;;;;;;;;;;5864198;28;20057;-77
2024/01/27 05:52:25;;;;;;;13.93;2.05;;;;;;;;;;5862796;28;20486;-77
2024/01/27 05:55:17;;;;;;;0.75;0.75;;;;;;;;;;5879057;28;20462;-77
2024/01/27 05:58:07;;;;;;;2.67;1.08;;;;;;;;;;5862486;28;20049;-77
2024/01/27 06:00:58;;;;;;;2.33;1.45;;;;;;;;;;5862917;28;20061;-77
2024/01/27 06:03:49;;;;;;;2.53;0.95;;;;;;;;;;5862531;28;20042;-77
2024/01/27 06:06:40;;;;;;;1.20;1.10;;;;;;;;;;5863669;28;20333;-77
2024/01/27 06:09:31;;;;;;;0.95;0.70;;;;;;;;;;5862422;28;20045;-77
2024/01/27 06:12:22;;;;;;;1.98;0.73;;;;;;;;;;5862172;28;20124;-77
2024/01/27 06:15:14;;;;;;;13.40;0.95;;;;;;;;;;5862238;28;20041;-77
2024/01/27 06:18:05;;;;;;;1.65;1.38;;;;;;;;;;5861921;28;20049;-77
2024/01/27 06:20:56;;;;;;;1.40;1.30;;;;;;;;;;5863780;28;20053;-77
2024/01/27 06:23:47;;;;;;;2.38;1.20;;;;;;;;;;5863125;28;20103;-77
2024/01/27 06:26:38;;;;;;;6.22;1.92;;;;;;;;;;5861988;28;20042;-77
2024/01/27 06:29:29;;;;;;;1.88;1.20;;;;;;;;;;5863285;28;20057;-77
2024/01/27 06:32:20;;;;;;;2.05;1.35;;;;;;;;;;5863043;28;20121;-77
2024/01/27 06:35:10;;;;;;;2.25;1.20;;;;;;;;;;5861851;28;20443;-77
2024/01/27 06:38:01;;;;;;;1.20;0.63;;;;;;;;;;5861998;28;20123;-77
2024/01/27 06:40:52;;;;;;;1.15;0.98;;;;;;;;;;5862076;28;20057;-77
2024/01/27 06:43:43;;;;;;;2.35;0.80;;;;;;;;;;5878157;28;20041;-77
2024/01/27 06:46:33;;;;;;;0.75;0.65;;;;;;;;;;5878067;28;20409;-77
2024/01/27 06:49:24;;;;;;;1.52;0.90;;;;;;;;;;5861799;28;20056;-77
2024/01/27 06:52:15;;;;;;;0.90;0.88;;;;;;;;;;5861293;28;20049;-77
2024/01/27 06:55:06;;;;;;;0.95;0.70;;;;;;;;;;5863047;28;20084;-77
2024/01/27 06:57:57;;;;;;;5.93;0.70;;;;;;;;;;5829711;28;20399;-78
2024/01/27 07:00:48;;;;;;;1.48;0.95;;;;;;;;;;5839596;28;20045;-77
2024/01/27 07:03:39;;;;;;;6.03;1.80;;;;;;;;;;5839566;28;20048;-77
2024/01/27 07:06:30;;;;;;;5.78;1.35;;;;;;;;;;5839500;28;20112;-77
2024/01/27 07:09:21;;;;;;;1.58;1.35;;;;;;;;;;5838178;28;20046;-77
2024/01/27 07:12:12;;;;;;;0.20;0.20;;;;;;;;;;5853834;28;20056;-77
2024/01/27 07:15:03;;;;;;;8.32;2.25;;;;;;;;;;5822119;28;20097;-77
2024/01/27 07:17:54;;;;;;;2.70;1.15;;;;;;;;;;5838288;28;20068;-77
2024/01/27 07:20:45;;;;;;;1.00;0.95;;;;;;;;;;5821843;28;20129;-77
2024/01/27 07:23:36;;;;;;;2.45;1.90;;;;;;;;;;5839233;28;20373;-77
2024/01/27 07:26:27;;;;;;;0.88;0.88;;;;;;;;;;5839262;28;20052;-77
2024/01/27 07:29:17;;;;;;;2.17;1.45;;;;;;;;;;5821643;28;20045;-76
2024/01/27 07:32:13;;;;;;;2.35;1.50;;;;;;;;;;5837802;28;20045;-77
2024/01/27 07:35:05;;;;;;;0.75;0.75;;;;;;;;;;5838210;28;20482;-77
2024/01/27 07:37:56;;;;;;;1.10;0.88;;;;;;;;;;5839775;28;20061;-77
2024/01/27 07:40:47;;;;;;;4.03;2.40;;;;;;;;;;5838011;28;20522;-76
2024/01/27 07:43:38;;;;;;;3.30;1.48;;;;;;;;;;5854062;28;20045;-76
2024/01/27 07:46:28;;;;;;;1.27;1.15;;;;;;;;;;5839121;28;20053;-77
2024/01/27 07:49:19;;;;;;;6.43;0.70;;;;;;;;;;5838809;28;20058;-77
2024/01/27 07:52:10;;;;;;;2.42;0.90;;;;;;;;;;5837865;28;20156;-77
2024/01/27 07:55:01;;;;;;;0.82;0.80;;;;;;;;;;5839408;28;20046;-77
2024/01/27 07:57:52;;;;;;;2.80;1.30;;;;;;;;;;5839942;28;20046;-77
2024/01/27 08:00:43;;;;;;;3.55;1.00;;;;;;;;;;5839020;28;20500;-77
2024/01/27 08:03:34;;;;;;;1.60;1.50;;;;;;;;;;5837194;28;20172;-77
2024/01/27 08:06:32;;;;;;;1.65;1.45;;;;;;;;;;5838857;28;20455;-77
2024/01/27 08:09:23;;;;;;;1.20;0.80;;;;;;;;;;5838757;28;20046;-77
2024/01/27 08:12:14;;;;;;;6.28;1.58;;;;;;;;;;5838705;28;20046;-76
2024/01/27 08:15:06;;;;;;;7.18;1.25;;;;;;;;;;5854059;28;20069;-77
2024/01/27 08:17:57;;;;;;;1.02;0.88;;;;;;;;;;5854115;28;20397;-77
2024/01/27 08:20:48;;;;;;;0.40;0.40;;;;;;;;;;5837567;28;20042;-77
2024/01/27 08:23:39;;;;;;;4.22;2.45;;;;;;;;;;5856439;28;20414;-77
2024/01/27 08:26:30;;;;;;;1.75;1.25;;;;;;;;;;5841480;28;20065;-76
2024/01/27 08:29:21;;;;;;;5.28;1.75;;;;;;;;;;5857771;28;20147;-77
2024/01/27 08:32:12;;;;;;;2.22;1.08;;;;;;;;;;5841423;28;20060;-77
2024/01/27 08:35:03;;;;;;;2.42;1.90;;;;;;;;;;5857936;28;20057;-77
2024/01/27 08:37:56;;;;;;;1.75;0.98;;;;;;;;;;5826022;28;20053;-77
2024/01/27 08:40:47;;;;;;;0.57;0.57;;;;;;;;;;5842477;28;20057;-77
2024/01/27 08:43:38;;;;;;;2.83;1.65;;;;;;;;;;5841107;28;20393;-77
2024/01/27 08:46:29;;;;;;;2.35;1.23;;;;;;;;;;5841319;28;20516;-77
2024/01/27 08:49:19;;;;;;;0.75;0.75;;;;;;;;;;5842292;28;20050;-77
2024/01/27 08:52:10;;;;;;;0.50;0.50;;;;;;;;;;5840869;28;20065;-76
2024/01/27 08:55:01;;;;;;;1.38;0.68;;;;;;;;;;5841166;28;20058;-77
2024/01/27 08:57:52;;;;;;;0.85;0.85;;;;;;;;;;5842521;28;20052;-77
2024/01/27 09:00:43;;;;;;;6.25;1.33;;;;;;;;;;5842417;28;20049;-77
2024/01/27 09:03:34;;;;;;;2.08;1.25;;;;;;;;;;5840634;28;20411;-77
2024/01/27 09:06:25;;;;;;;1.00;0.85;;;;;;;;;;5840615;28;20046;-77
2024/01/27 09:09:21;;;;;;;1.90;1.33;;;;;;;;;;5825311;28;20054;-78
2024/01/27 09:12:12;;;;;;;6.63;2.05;;;;;;;;;;5856985;28;20523;-77
2024/01/27 09:15:03;;;;;;;2.20;1.35;;;;;;;;;;5840831;28;20422;-77
2024/01/27 09:17:54;;;;;;;1.08;0.90;;;;;;;;;;5857150;28;20559;-77
2024/01/27 09:20:45;;;;;;;3.80;2.45;;;;;;;;;;5840587;28;20504;-77
2024/01/27 09:23:36;;;;;;;6.35;1.45;;;;;;;;;;5856656;28;20512;-77
2024/01/27 09:26:26;;;;;;;1.85;1.52;;;;;;;;;;5856859;28;20057;-77
2024/01/27 09:29:17;;;;;;;1.02;0.70;;;;;;;;;;5856514;28;20045;-77
2024/01/27 09:32:08;;;;;;;0.93;0.65;;;;;;;;;;5824239;28;20072;-77
2024/01/27 09:34:59;;;;;;;3.85;1.25;;;;;;;;;;5824142;28;20042;-77
2024/01/27 09:37:50;;;;;;;0.47;0.47;;;;;;;;;;5840008;28;20064;-77
2024/01/27 09:40:41;;;;;;;0.68;0.57;;;;;;;;;;5856405;28;20042;-77
2024/01/27 09:43:33;;;;;;;1.92;1.33;;;;;;;;;;5840242;28;20061;-77
2024/01/27 09:46:24;;;;;;;1.85;1.45;;;;;;;;;;5856153;28;20073;-77
2024/01/27 09:49:15;;;;;;;1.25;1.15;;;;;;;;;;5855953;28;20056;-77
2024/01/27 09:52:06;;;;;;;1.92;1.15;;;;;;;;;;5839884;28;20136;-77
2024/01/27 09:54:57;;;;;;;0.93;0.93;;;;;;;;;;5840211;28;20050;-77
2024/01/27 09:57:48;;;;;;;3.10;1.10;;;;;;;;;;5839561;28;20075;-77
2024/01/27 10:00:40;;;;;;;4.57;1.45;;;;;;;;;;5839577;28;20048;-77
2024/01/27 10:03:32;;;;;;;1.95;1.13;;;;;;;;;;5839445;28;20061;-77
2024/01/27 10:06:23;;;;;;;1.38;1.27;;;;;;;;;;5839477;28;20048;-76
2024/01/27 10:09:14;;;;;;;1.23;1.13;;;;;;;;;;5839560;28;20492;-76
2024/01/27 10:12:05;;;;;;;3.90;1.27;;;;;;;;;;5839401;28;20041;-77
2024/01/27 10:14:56;;;;;;;1.98;0.90;;;;;;;;;;5839815;28;20057;-77
2024/01/27 10:17:48;;;;;;;0.70;0.70;;;;;;;;;;5839350;28;20416;-76
2024/01/27 10:20:39;;;;;;;5.00;1.45;;;;;;;;;;5839362;28;20058;-77
2024/01/27 10:23:30;;;;;;;2.53;1.92;;;;;;;;;;5838413;28;20050;-76
2024/01/27 10:26:21;;;;;;;1.02;0.93;;;;;;;;;;5828431;28;20412;-76
2024/01/27 10:29:12;;;;;;;2.38;1.75;;;;;;;;;;5856330;28;20080;-77
2024/01/27 10:32:10;;;;;;;2.08;1.83;;;;;;;;;;5862384;28;20414;-77
2024/01/27 10:35:08;;;;;;;1.63;1.17;;;;;;;;;;5860914;28;20580;-77
2024/01/27 10:37:59;;;;;;;3.22;1.58;;;;;;;;;;5855658;28;20044;-76
2024/01/27 10:40:50;;;;;;;1.52;1.30;;;;;;;;;;5884031;28;20123;-76
2024/01/27 10:43:41;;;;;;;2.10;1.83;;;;;;;;;;5861944;28;20044;-77
2024/01/27 10:46:32;;;;;;;6.18;2.58;;;;;;;;;;5844793;28;20056;-76
2024/01/27 10:49:24;;;;;;;2.72;0.80;;;;;;;;;;5841177;28;20057;-76
2024/01/27 10:52:20;;;;;;;1.63;1.50;;;;;;;;;;5838763;28;20073;-76
2024/01/27 10:55:12;;;;;;;2.13;1.92;;;;;;;;;;5838140;28;20491;-76
2024/01/27 10:58:03;;;;;;;1.13;1.05;;;;;;;;;;5836774;28;20175;-76
2024/01/27 11:00:56;;;;;;;7.03;2.30;;;;;;;;;;5856376;28;20053;-76
2024/01/27 11:03:48;;;;;;;7.05;3.72;;;;;;;;;;5841313;28;20045;-76
2024/01/27 11:06:41;;;;;;;2.95;2.03;;;;;;;;;;5838405;28;20049;-76
2024/01/27 11:09:35;;;;;;;0.98;0.98;;;;;;;;;;5840721;28;20049;-76
2024/01/27 11:12:26;;;;;;;2.05;1.45;;;;;;;;;;5836408;28;20411;-77
2024/01/27 11:15:17;;;;;;;1.95;1.80;;;;;;;;;;5837858;28;20054;-76
2024/01/27 11:18:08;;;;;;;1.75;1.63;;;;;;;;;;5847683;28;20052;-77
2024/01/27 11:20:59;;;;;;;3.75;1.35;;;;;;;;;;5847066;28;20042;-76
2024/01/27 11:23:50;;;;;;;1.60;1.23;;;;;;;;;;5838338;28;20064;-76
2024/01/27 11:26:42;;;;;;;1.88;1.63;;;;;;;;;;5822346;28;20049;-77
2024/01/27 11:29:34;;;;;;;1.55;1.45;;;;;;;;;;5837528;28;20050;-76
2024/01/27 11:32:26;;;;;;;11.25;2.08;;;;;;;;;;5838379;28;20062;-76
2024/01/27 11:35:17;;;;;;;2.58;0.90;;;;;;;;;;5839478;28;20046;-77
2024/01/27 11:38:09;;;;;;;1.67;1.52;;;;;;;;;;5857730;28;20044;-77
2024/01/27 11:41:01;;;;;;;3.13;1.95;;;;;;;;;;5851020;28;20046;-77
2024/01/27 11:43:57;;;;;;;4.28;1.08;;;;;;;;;;5837991;28;20052;-77
2024/01/27 11:46:48;;;;;;;1.27;1.17;;;;;;;;;;5836702;28;20046;-76
2024/01/27 11:49:39;;;;;;;0.90;0.90;;;;;;;;;;5837216;28;20068;-77
2024/01/27 11:52:35;;;;;;;0.60;0.55;;;;;;;;;;5839296;28;20594;-77
2024/01/27 11:55:25;;;;;;;1.50;1.40;;;;;;;;;;5837616;28;20053;-77
2024/01/27 11:58:16;;;;;;;0.88;0.77;;;;;;;;;;5842302;28;20046;-77
2024/01/27 12:01:09;;;;;;;2.00;1.20;;;;;;;;;;5841921;28;20049;-77
2024/01/27 12:04:00;;;;;;;1.60;1.35;;;;;;;;;;5826724;28;20053;-77
2024/01/27 12:06:51;;;;;;;2.33;2.13;;;;;;;;;;5843304;28;20468;-77
2024/01/27 12:09:42;;;;;;;1.23;1.05;;;;;;;;;;5843479;28;20493;-77
2024/01/27 12:12:33;;;;;;;4.53;0.80;;;;;;;;;;5841946;28;20066;-76
2024/01/27 12:15:26;;;;;;;3.25;1.90;;;;;;;;;;5843315;28;20045;-77
2024/01/27 12:18:18;;;;;;;1.33;1.25;;;;;;;;;;5825761;28;20056;-76
2024/01/27 12:21:13;;;;;;;1.25;1.13;;;;;;;;;;5841827;28;20136;-76
2024/01/27 12:24:04;;;;;;;2.25;1.27;;;;;;;;;;5825897;28;20050;-77
2024/01/27 12:26:57;;;;;;;1.05;0.93;;;;;;;;;;5842317;28;20081;-76
2024/01/27 12:29:52;;;;;;;0.70;0.70;;;;;;;;;;5825644;28;20046;-77
2024/01/27 12:32:42;;;;;;;3.03;1.50;;;;;;;;;;5842759;28;20052;-76
2024/01/27 12:35:34;;;;;;;2.13;1.65;;;;;;;;;;5843021;28;20052;-76
2024/01/27 12:38:25;;;;;;;1.85;0.88;;;;;;;;;;5842856;28;20054;-76
2024/01/27 12:41:15;;;;;;;2.03;1.10;;;;;;;;;;5842799;28;20050;-77
2024/01/27 12:44:06;;;;;;;1.98;1.55;;;;;;;;;;5842816;28;20065;-77
2024/01/27 12:46:57;;;;;;;4.00;1.40;;;;;;;;;;5841775;28;20156;-77
2024/01/27 12:49:48;;;;;;;0.73;0.55;;;;;;;;;;5863738;28;20407;-76
2024/01/27 12:52:39;;;;;;;2.00;1.33;;;;;;;;;;5864173;28;20178;-76
2024/01/27 12:55:30;;;;;;;1.17;0.88;;;;;;;;;;5864268;28;20048;-77
2024/01/27 12:58:21;;;;;;;1.02;0.95;;;;;;;;;;5864010;28;20057;-77
2024/01/27 13:01:12;;;;;;;1.73;1.63;;;;;;;;;;5864856;28;20053;-76
2024/01/27 13:04:03;;;;;;;1.20;1.10;;;;;;;;;;5863963;28;20470;-77
2024/01/27 13:06:54;;;;;;;0.90;0.77;;;;;;;;;;5848556;28;20053;-77
2024/01/27 13:09:45;;;;;;;1.83;1.10;;;;;;;;;;5879414;28;20172;-77
2024/01/27 13:12:36;;;;;;;5.30;1.60;;;;;;;;;;5847354;28;20041;-77
2024/01/27 13:15:27;;;;;;;1.48;1.15;;;;;;;;;;5847241;28;20042;-76
2024/01/27 13:18:17;;;;;;;2.08;1.70;;;;;;;;;;5863446;28;20847;-77
2024/01/27 13:21:08;;;;;;;1.52;0.73;;;;;;;;;;5863512;28;20069;-76
2024/01/27 13:23:59;;;;;;;1.92;1.65;;;;;;;;;;5864050;28;20077;-76
2024/01/27 13:26:51;;;;;;;2.47;2.10;;;;;;;;;;5863247;28;20045;-76
2024/01/27 13:29:42;;;;;;;1.35;1.25;;;;;;;;;;5847053;28;20433;-76
2024/01/27 13:32:33;;;;;;;1.08;1.02;;;;;;;;;;5863675;28;20049;-77
2024/01/27 13:35:25;;;;;;;2.28;1.98;;;;;;;;;;5863307;28;20056;-76
2024/01/27 13:38:23;;;;;;;2.08;1.48;;;;;;;;;;5862835;28;20064;-77
2024/01/27 13:41:14;;;;;;;6.28;2.65;;;;;;;;;;5863097;28;20037;-77
2024/01/27 13:44:05;;;;;;;7.57;3.08;;;;;;;;;;5862700;28;20038;-77
2024/01/27 13:47:00;;;;;;;5.47;2.97;;;;;;;;;;5863590;28;20122;-77
2024/01/27 13:49:52;;;;;;;3.67;1.73;;;;;;;;;;5863084;28;20084;-77
2024/01/27 13:52:45;;;;;;;1.85;1.23;;;;;;;;;;5846617;28;20069;-76
2024/01/27 13:55:36;;;;;;;5.13;2.08;;;;;;;;;;5862680;28;20515;-77
2024/01/27 13:58:27;;;;;;;1.48;1.38;;;;;;;;;;5862875;28;20048;-76
2024/01/27 14:01:18;;;;;;;1.35;1.23;;;;;;;;;;5862381;28;20053;-77
2024/01/27 14:04:09;;;;;;;7.85;1.90;;;;;;;;;;5862629;28;20041;-77
2024/01/27 14:07:06;;;;;;;3.67;3.33;;;;;;;;;;5863283;28;20514;-76
2024/01/27 14:09:57;;;;;;;3.40;2.22;;;;;;;;;;5856686;28;20044;-77
2024/01/27 14:12:48;;;;;;;2.00;1.80;;;;;;;;;;5862271;28;20045;-77
2024/01/27 14:15:38;;;;;;;3.45;2.33;;;;;;;;;;5863553;28;20041;-77
2024/01/27 14:18:31;;;;;;;3.72;1.77;;;;;;;;;;5863643;28;20049;-77
2024/01/27 14:21:22;;;;;;;4.25;2.08;;;;;;;;;;5862478;28;20049;-77
2024/01/27 14:24:13;;;;;;;2.10;1.90;;;;;;;;;;5845555;28;20041;-77
2024/01/27 14:27:08;;;;;;;5.70;1.90;;;;;;;;;;5862293;28;20458;-77
2024/01/27 14:29:58;;;;;;;6.80;1.83;;;;;;;;;;5862427;28;20534;-77
2024/01/27 14:32:49;;;;;;;2.33;1.05;;;;;;;;;;5863588;28;20053;-77
2024/01/27 14:35:40;;;;;;;4.22;1.80;;;;;;;;;;5863139;28;20052;-76
2024/01/27 14:38:31;;;;;;;1.55;1.33;;;;;;;;;;5862192;28;20056;-77
2024/01/27 14:41:23;;;;;;;7.28;2.85;;;;;;;;;;5861830;28;20491;-77
2024/01/27 14:44:14;;;;;;;5.90;1.65;;;;;;;;;;5863045;28;20404;-77
2024/01/27 14:47:06;;;;;;;4.55;1.85;;;;;;;;;;5863152;28;20046;-77
2024/01/27 14:49:57;;;;;;;2.13;1.52;;;;;;;;;;5845989;28;20041;-77
2024/01/27 14:52:48;;;;;;;3.90;2.70;;;;;;;;;;5855124;28;20365;-77
2024/01/27 14:55:39;;;;;;;5.10;2.90;;;;;;;;;;5838505;28;20046;-77
2024/01/27 14:58:29;;;;;;;1.80;1.33;;;;;;;;;;5838601;28;20053;-77
2024/01/27 15:01:20;;;;;;;2.05;1.38;;;;;;;;;;5838246;28;20046;-77
2024/01/27 15:04:11;;;;;;;1.88;1.75;;;;;;;;;;5822281;28;20058;-77
2024/01/27 15:07:02;;;;;;;4.10;2.20;;;;;;;;;;5838384;28;20487;-77
2024/01/27 15:09:53;;;;;;;3.05;2.38;;;;;;;;;;5840277;28;20042;-77
2024/01/27 15:12:44;;;;;;;5.07;1.92;;;;;;;;;;5844227;28;20049;-77
2024/01/27 15:15:34;;;;;;;3.47;2.35;;;;;;;;;;5861295;28;20042;-77
2024/01/27 15:18:25;;;;;;;2.15;2.00;;;;;;;;;;5861438;28;20216;-77
2024/01/27 15:21:16;;;;;;;4.05;2.85;;;;;;;;;;5862847;28;20124;-77
2024/01/27 15:24:07;;;;;;;5.40;3.42;;;;;;;;;;5862470;28;20159;-78
2024/01/27 15:26:58;;;;;;;3.00;2.65;;;;;;;;;;5863021;28;20056;-77
2024/01/27 15:30:00;;;;;;;3.65;2.15;;;;;;;;;;5862553;28;20356;-78
2024/01/27 15:32:51;;;;;;;2.55;1.75;;;;;;;;;;5865026;28;20045;-77
2024/01/27 15:35:42;;;;;;;4.20;1.98;;;;;;;;;;5867127;28;20042;-77
2024/01/27 15:38:33;;;;;;;4.75;3.35;;;;;;;;;;5867293;28;20411;-77
2024/01/27 15:41:24;;;;;;;1.80;1.60;;;;;;;;;;5865706;28;20045;-77
2024/01/27 15:44:15;;;;;;;5.35;1.80;;;;;;;;;;5865640;28;20049;-77
2024/01/27 15:47:07;;;;;;;2.70;2.30;;;;;;;;;;5866944;28;20049;-77
2024/01/27 15:50:03;;;;;;;2.92;2.42;;;;;;;;;;5867368;28;20049;-77
2024/01/27 15:52:55;;;;;;;13.80;2.55;;;;;;;;;;5865826;28;20560;-77
2024/01/27 15:55:46;;;;;;;7.13;2.72;;;;;;;;;;5865334;28;20042;-77
2024/01/27 15:58:37;;;;;;;11.65;3.67;;;;;;;;;;5848999;28;20056;-77
2024/01/27 16:01:27;;;;;;;4.43;3.63;;;;;;;;;;5865310;28;20649;-77
2024/01/27 16:04:18;;;;;;;4.40;3.17;;;;;;;;;;5866276;28;20053;-76
2024/01/27 16:07:10;;;;;;;7.05;3.97;;;;;;;;;;5866326;28;20049;-77
2024/01/27 16:10:04;;;;;;;7.50;4.25;;;;;;;;;;5865173;28;20045;-77
2024/01/27 16:12:55;;;;;;;3.58;2.92;;;;;;;;;;5849641;28;20498;-77
2024/01/27 16:15:45;;;;;;;4.65;3.33;;;;;;;;;;5864703;28;20046;-77
2024/01/27 16:18:36;;;;;;;3.25;2.25;;;;;;;;;;5864916;28;20140;-77
2024/01/27 16:21:27;;;;;;;6.47;2.65;;;;;;;;;;5866212;28;20447;-77
2024/01/27 16:24:23;;;;;;;8.50;3.08;;;;;;;;;;5865828;28;20045;-77
2024/01/27 16:27:14;;;;;;;4.65;3.47;;;;;;;;;;5848341;28;20049;-77
2024/01/27 16:30:06;;;;;;;6.50;2.72;;;;;;;;;;5866147;28;20136;-77
2024/01/27 16:32:57;;;;;;;5.65;3.20;;;;;;;;;;5866548;28;20131;-77
2024/01/27 16:35:48;;;;;;;3.90;3.40;;;;;;;;;;5848129;28;20041;-77
2024/01/27 16:38:39;;;;;;;2.10;1.90;;;;;;;;;;5848125;28;20053;-77
2024/01/27 16:41:33;;;;;;;2.65;2.15;;;;;;;;;;5865966;28;20096;-76
2024/01/27 16:44:24;;;;;;;11.90;4.13;;;;;;;;;;5864218;28;20045;-76
2024/01/27 16:47:16;;;;;;;11.98;6.32;;;;;;;;;;5865669;28;20060;-77
2024/01/27 16:50:08;;;;;;;6.95;5.85;;;;;;;;;;5864512;28;20408;-77
2024/01/27 16:52:59;;;;;;;8.68;4.50;;;;;;;;;;5848148;28;20052;-77
2024/01/27 16:55:50;;;;;;;6.80;3.17;;;;;;;;;;5863869;28;20499;-77
2024/01/27 16:58:46;;;;;;;5.07;3.92;;;;;;;;;;5865492;28;20045;-76
2024/01/27 17:01:36;;;;;;;4.47;3.92;;;;;;;;;;5863730;28;20045;-77
2024/01/27 17:04:27;;;;;;;4.25;2.95;;;;;;;;;;5865212;28;20064;-77
2024/01/27 17:07:18;;;;;;;5.28;3.58;;;;;;;;;;5864941;28;20088;-77